sensor_id;sensor_type;location;lat;lon;timestamp;pressure;altitude;pressure_sealevel;temperature;humidity
70407;BME280;57821;52.202;0.154;2023-05-11T00:00:31;101384.97;;;12.23;100.00
70407;BME280;57821;52.202;0.154;2023-05-11T00:02:57;101386.69;;;12.18;100.00
70407;BME280;57821;52.202;0.154;2023-05-11T00:05:24;101394.50;;;12.15;100.00
70407;BME280;57821;52.202;0.154;2023-05-11T00:07:50;101391.03;;;12.13;100.00
70407;BME280;57821;52.202;0.154;2023-05-11T00:10:17;101391.91;;;12.15;100.00
70407;BME280;57821;52.202;0.154;2023-05-11T00:12:44;101394.50;;;12.15;100.00
70407;BME280;57821;52.202;0.154;2023-05-11T00:15:10;101403.19;;;12.11;100.00
70407;BME280;57821;52.202;0.154;2023-05-11T00:17:37;101381.50;;;12.03;100.00
70407;BME280;57821;52.202;0.154;2023-05-11T00:20:04;101389.31;;;12.05;100.00
70407;BME280;57821;52.202;0.154;2023-05-11T00:22:31;101395.38;;;11.99;100.00
70407;BME280;57821;52.202;0.154;2023-05-11T00:24:57;101399.69;;;11.97;100.00
70407;BME280;57821;52.202;0.154;2023-05-11T00:27:24;101395.34;;;11.90;100.00
70407;BME280;57821;52.202;0.154;2023-05-11T00:29:50;101399.69;;;11.94;100.00
70407;BME280;57821;52.202;0.154;2023-05-11T00:32:17;101404.03;;;11.95;100.00
70407;BME280;57821;52.202;0.154;2023-05-11T00:34:43;101406.63;;;11.93;100.00
70407;BME280;57821;52.202;0.154;2023-05-11T00:37:10;101391.03;;;11.86;100.00
70407;BME280;57821;52.202;0.154;2023-05-11T00:39:37;101393.63;;;11.86;100.00
70407;BME280;57821;52.202;0.154;2023-05-11T00:42:03;101392.75;;;11.88;100.00
70407;BME280;57821;52.202;0.154;2023-05-11T00:44:30;101404.03;;;11.95;100.00
70407;BME280;57821;52.202;0.154;2023-05-11T00:46:57;101400.56;;;11.94;100.00
70407;BME280;57821;52.202;0.154;2023-05-11T00:49:23;101399.72;;;11.88;100.00
70407;BME280;57821;52.202;0.154;2023-05-11T00:51:50;101390.16;;;11.88;100.00
70407;BME280;57821;52.202;0.154;2023-05-11T00:54:17;101392.75;;;11.90;100.00
70407;BME280;57821;52.202;0.154;2023-05-11T00:56:44;101407.50;;;11.97;100.00
70407;BME280;57821;52.202;0.154;2023-05-11T00:59:11;101418.75;;;11.94;100.00
70407;BME280;57821;52.202;0.154;2023-05-11T01:01:38;101425.69;;;11.99;100.00
70407;BME280;57821;52.202;0.154;2023-05-11T01:04:04;101417.91;;;11.99;100.00
70407;BME280;57821;52.202;0.154;2023-05-11T01:06:51;101410.94;;;11.96;100.00
70407;BME280;57821;52.202;0.154;2023-05-11T01:09:29;101402.28;;;11.94;100.00
70407;BME280;57821;52.202;0.154;2023-05-11T01:12:13;101415.28;;;12.00;100.00
70407;BME280;57821;52.202;0.154;2023-05-11T01:14:44;101421.34;;;12.02;100.00
70407;BME280;57821;52.202;0.154;2023-05-11T01:17:23;101423.09;;;12.03;100.00
70407;BME280;57821;52.202;0.154;2023-05-11T01:19:56;101421.34;;;12.02;100.00
70407;BME280;57821;52.202;0.154;2023-05-11T01:31:11;101422.22;;;11.95;100.00
70407;BME280;57821;52.202;0.154;2023-05-11T01:33:57;101426.56;;;11.98;100.00
70407;BME280;57821;52.202;0.154;2023-05-11T01:36:35;101418.75;;;11.91;100.00
70407;BME280;57821;52.202;0.154;2023-05-11T01:39:07;101434.34;;;11.96;100.00
70407;BME280;57821;52.202;0.154;2023-05-11T01:41:37;101428.28;;;11.91;100.00
70407;BME280;57821;52.202;0.154;2023-05-11T01:44:08;101431.75;;;11.87;100.00
70407;BME280;57821;52.202;0.154;2023-05-11T01:46:35;101442.16;;;11.93;100.00
70407;BME280;57821;52.202;0.154;2023-05-11T01:49:06;101434.34;;;11.87;100.00
70407;BME280;57821;52.202;0.154;2023-05-11T01:51:35;101441.25;;;11.89;100.00
70407;BME280;57821;52.202;0.154;2023-05-11T01:54:05;101433.47;;;11.85;100.00
70407;BME280;57821;52.202;0.154;2023-05-11T01:56:34;101429.13;;;11.79;100.00
70407;BME280;57821;52.202;0.154;2023-05-11T01:59:01;101435.19;;;11.80;100.00
70407;BME280;57821;52.202;0.154;2023-05-11T02:01:28;101432.56;;;11.78;100.00
70407;BME280;57821;52.202;0.154;2023-05-11T02:03:57;101436.03;;;11.77;100.00
70407;BME280;57821;52.202;0.154;2023-05-11T02:06:28;101435.13;;;11.71;100.00
70407;BME280;57821;52.202;0.154;2023-05-11T02:08:56;101446.44;;;11.77;100.00
70407;BME280;57821;52.202;0.154;2023-05-11T02:11:25;101438.59;;;11.73;100.00
70407;BME280;57821;52.202;0.154;2023-05-11T02:13:56;101452.50;;;11.75;100.00
70407;BME280;57821;52.202;0.154;2023-05-11T02:16:23;101454.19;;;11.73;100.00
70407;BME280;57821;52.202;0.154;2023-05-11T02:18:52;101452.44;;;11.69;100.00
70407;BME280;57821;52.202;0.154;2023-05-11T02:21:20;101440.31;;;11.65;100.00
70407;BME280;57821;52.202;0.154;2023-05-11T02:23:48;101444.63;;;11.61;100.00
70407;BME280;57821;52.202;0.154;2023-05-11T02:26:16;101445.50;;;11.59;100.00
70407;BME280;57821;52.202;0.154;2023-05-11T02:28:43;101448.97;;;11.58;100.00
70407;BME280;57821;52.202;0.154;2023-05-11T02:31:15;101457.56;;;11.53;100.00
70407;BME280;57821;52.202;0.154;2023-05-11T02:33:45;101455.84;;;11.49;100.00
70407;BME280;57821;52.202;0.154;2023-05-11T02:36:19;101454.97;;;11.49;100.00
70407;BME280;57821;52.202;0.154;2023-05-11T02:38:49;101461.03;;;11.46;100.00
70407;BME280;57821;52.202;0.154;2023-05-11T02:41:21;101462.75;;;11.44;100.00
70407;BME280;57821;52.202;0.154;2023-05-11T02:43:53;101450.59;;;11.34;100.00
70407;BME280;57821;52.202;0.154;2023-05-11T02:46:25;101453.16;;;11.31;100.00
70407;BME280;57821;52.202;0.154;2023-05-11T02:48:55;101453.16;;;11.24;100.00
70407;BME280;57821;52.202;0.154;2023-05-11T02:51:28;101459.19;;;11.24;100.00
70407;BME280;57821;52.202;0.154;2023-05-11T02:53:58;101464.38;;;11.21;100.00
70407;BME280;57821;52.202;0.154;2023-05-11T02:56:29;101456.53;;;11.13;100.00
70407;BME280;57821;52.202;0.154;2023-05-11T02:58:57;101461.72;;;11.10;100.00
70407;BME280;57821;52.202;0.154;2023-05-11T03:01:25;101454.78;;;11.05;100.00
70407;BME280;57821;52.202;0.154;2023-05-11T03:03:56;101450.41;;;10.98;100.00
70407;BME280;57821;52.202;0.154;2023-05-11T03:06:25;101469.47;;;11.03;100.00
70407;BME280;57821;52.202;0.154;2023-05-11T03:08:52;101473.78;;;11.01;100.00
70407;BME280;57821;52.202;0.154;2023-05-11T03:11:20;101465.09;;;10.93;100.00
70407;BME280;57821;52.202;0.154;2023-05-11T03:13:47;101455.56;;;10.89;100.00
70407;BME280;57821;52.202;0.154;2023-05-11T03:16:15;101468.56;;;10.93;100.00
70407;BME280;57821;52.202;0.154;2023-05-11T03:18:48;101470.25;;;10.90;100.00
70407;BME280;57821;52.202;0.154;2023-05-11T03:21:17;101459.84;;;10.82;100.00
70407;BME280;57821;52.202;0.154;2023-05-11T03:23:45;101458.94;;;10.79;100.00
70407;BME280;57821;52.202;0.154;2023-05-11T03:26:15;101468.47;;;10.81;100.00
70407;BME280;57821;52.202;0.154;2023-05-11T03:28:43;101464.13;;;10.76;100.00
70407;BME280;57821;52.202;0.154;2023-05-11T03:31:11;101465.84;;;10.75;100.00
70407;BME280;57821;52.202;0.154;2023-05-11T03:33:38;101474.50;;;10.76;100.00
70407;BME280;57821;52.202;0.154;2023-05-11T03:36:08;101479.69;;;10.79;100.00
70407;BME280;57821;52.202;0.154;2023-05-11T03:38:36;101465.81;;;10.70;100.00
70407;BME280;57821;52.202;0.154;2023-05-11T03:41:05;101472.75;;;10.72;100.00
70407;BME280;57821;52.202;0.154;2023-05-11T03:43:35;101475.31;;;10.70;100.00
70407;BME280;57821;52.202;0.154;2023-05-11T03:46:05;101479.66;;;10.73;100.00
70407;BME280;57821;52.202;0.154;2023-05-11T03:48:32;101460.59;;;10.67;100.00
70407;BME280;57821;52.202;0.154;2023-05-11T03:50:59;101460.63;;;10.70;100.00
70407;BME280;57821;52.202;0.154;2023-05-11T03:53:26;101466.69;;;10.71;100.00
70407;BME280;57821;52.202;0.154;2023-05-11T03:55:52;101468.38;;;10.67;100.00
70407;BME280;57821;52.202;0.154;2023-05-11T03:58:19;101468.38;;;10.67;100.00
70407;BME280;57821;52.202;0.154;2023-05-11T04:00:47;101464.03;;;10.63;100.00
70407;BME280;57821;52.202;0.154;2023-05-11T04:03:13;101456.25;;;10.63;100.00
70407;BME280;57821;52.202;0.154;2023-05-11T04:05:40;101466.63;;;10.65;100.00
70407;BME280;57821;52.202;0.154;2023-05-11T04:08:11;101463.16;;;10.60;100.00
70407;BME280;57821;52.202;0.154;2023-05-11T04:10:38;101474.38;;;10.60;100.00
70407;BME280;57821;52.202;0.154;2023-05-11T04:13:04;101464.84;;;10.56;100.00
70407;BME280;57821;52.202;0.154;2023-05-11T04:15:31;101471.72;;;10.54;100.00
70407;BME280;57821;52.202;0.154;2023-05-11T04:17:58;101474.31;;;10.54;100.00
70407;BME280;57821;52.202;0.154;2023-05-11T04:20:24;101467.41;;;10.53;100.00
70407;BME280;57821;52.202;0.154;2023-05-11T04:23:01;101460.44;;;10.49;100.00
70407;BME280;57821;52.202;0.154;2023-05-11T04:25:29;101474.31;;;10.54;100.00
70407;BME280;57821;52.202;0.154;2023-05-11T04:27:56;101476.06;;;10.54;100.00
70407;BME280;57821;52.202;0.154;2023-05-11T04:30:23;101476.94;;;10.56;100.00
70407;BME280;57821;52.202;0.154;2023-05-11T04:32:50;101472.63;;;10.56;100.00
70407;BME280;57821;52.202;0.154;2023-05-11T04:35:17;101465.69;;;10.55;100.00
70407;BME280;57821;52.202;0.154;2023-05-11T04:37:44;101470.91;;;10.58;100.00
70407;BME280;57821;52.202;0.154;2023-05-11T04:40:11;101474.38;;;10.60;100.00
70407;BME280;57821;52.202;0.154;2023-05-11T04:42:39;101479.59;;;10.63;100.00
70407;BME280;57821;52.202;0.154;2023-05-11T04:45:11;101483.94;;;10.64;100.00
70407;BME280;57821;52.202;0.154;2023-05-11T04:47:38;101483.06;;;10.65;100.00
70407;BME280;57821;52.202;0.154;2023-05-11T04:50:06;101481.34;;;10.67;100.00
70407;BME280;57821;52.202;0.154;2023-05-11T04:52:34;101478.72;;;10.66;100.00
70407;BME280;57821;52.202;0.154;2023-05-11T04:55:01;101473.56;;;10.64;100.00
70407;BME280;57821;52.202;0.154;2023-05-11T04:57:28;101468.34;;;10.66;100.00
70407;BME280;57821;52.202;0.154;2023-05-11T04:59:55;101488.34;;;10.76;100.00
70407;BME280;57821;52.202;0.154;2023-05-11T05:02:21;101477.03;;;10.73;100.00
70407;BME280;57821;52.202;0.154;2023-05-11T05:04:49;101472.75;;;10.78;100.00
70407;BME280;57821;52.202;0.154;2023-05-11T05:07:15;101484.06;;;10.83;100.00
70407;BME280;57821;52.202;0.154;2023-05-11T05:09:42;101483.22;;;10.87;100.00
70407;BME280;57821;52.202;0.154;2023-05-11T05:12:12;101489.31;;;10.93;100.00
70407;BME280;57821;52.202;0.154;2023-05-11T05:14:38;101486.69;;;10.92;100.00
70407;BME280;57821;52.202;0.154;2023-05-11T05:17:05;101499.72;;;11.01;100.00
70407;BME280;57821;52.202;0.154;2023-05-11T05:19:32;101492.81;;;11.03;100.00
70407;BME280;57821;52.202;0.154;2023-05-11T05:21:59;101497.19;;;11.05;100.00
70407;BME280;57821;52.202;0.154;2023-05-11T05:24:25;101500.66;;;11.10;100.00
70407;BME280;57821;52.202;0.154;2023-05-11T05:26:52;101510.22;;;11.18;100.00
70407;BME280;57821;52.202;0.154;2023-05-11T05:29:18;101509.34;;;11.19;100.00
70407;BME280;57821;52.202;0.154;2023-05-11T05:31:45;101505.03;;;11.19;100.00
70407;BME280;57821;52.202;0.154;2023-05-11T05:34:12;101509.41;;;11.26;100.00
70407;BME280;57821;52.202;0.154;2023-05-11T05:36:42;101506.81;;;11.28;100.00
70407;BME280;57821;52.202;0.154;2023-05-11T05:39:08;101511.13;;;11.30;100.00
70407;BME280;57821;52.202;0.154;2023-05-11T05:41:35;101512.91;;;11.34;100.00
70407;BME280;57821;52.202;0.154;2023-05-11T05:44:05;101520.75;;;11.40;100.00
70407;BME280;57821;52.202;0.154;2023-05-11T05:46:32;101514.66;;;11.43;100.00
70407;BME280;57821;52.202;0.154;2023-05-11T05:48:59;101521.63;;;11.45;100.00
70407;BME280;57821;52.202;0.154;2023-05-11T05:51:26;101518.16;;;11.49;100.00
70407;BME280;57821;52.202;0.154;2023-05-11T05:53:52;101526.00;;;11.52;100.00
70407;BME280;57821;52.202;0.154;2023-05-11T05:56:19;101529.47;;;11.58;100.00
70407;BME280;57821;52.202;0.154;2023-05-11T05:58:46;101512.09;;;11.47;100.00
70407;BME280;57821;52.202;0.154;2023-05-11T06:01:13;101528.59;;;11.57;100.00
70407;BME280;57821;52.202;0.154;2023-05-11T06:03:39;101525.09;;;11.49;100.00
70407;BME280;57821;52.202;0.154;2023-05-11T06:06:06;101526.84;;;11.54;100.00
70407;BME280;57821;52.202;0.154;2023-05-11T06:08:33;101537.25;;;11.51;100.00
70407;BME280;57821;52.202;0.154;2023-05-11T06:10:59;101527.66;;;11.47;100.00
70407;BME280;57821;52.202;0.154;2023-05-11T06:13:26;101529.44;;;11.50;100.00
70407;BME280;57821;52.202;0.154;2023-05-11T06:15:52;101534.66;;;11.53;100.00
70407;BME280;57821;52.202;0.154;2023-05-11T06:18:30;101540.69;;;11.53;100.00
70407;BME280;57821;52.202;0.154;2023-05-11T06:20:58;101537.25;;;11.58;100.00
70407;BME280;57821;52.202;0.154;2023-05-11T06:23:26;101538.97;;;11.56;100.00
70407;BME280;57821;52.202;0.154;2023-05-11T06:25:53;101542.44;;;11.56;100.00
70407;BME280;57821;52.202;0.154;2023-05-11T06:28:19;101538.13;;;11.57;100.00
70407;BME280;57821;52.202;0.154;2023-05-11T06:30:46;101540.72;;;11.60;100.00
70407;BME280;57821;52.202;0.154;2023-05-11T06:33:13;101544.19;;;11.59;100.00
70407;BME280;57821;52.202;0.154;2023-05-11T06:35:40;101540.75;;;11.63;100.00
70407;BME280;57821;52.202;0.154;2023-05-11T06:38:10;101546.81;;;11.71;100.00
70407;BME280;57821;52.202;0.154;2023-05-11T06:40:37;101539.09;;;11.74;100.00
70407;BME280;57821;52.202;0.154;2023-05-11T06:43:03;101551.25;;;11.84;100.00
70407;BME280;57821;52.202;0.154;2023-05-11T06:45:44;101550.41;;;11.86;100.00
70407;BME280;57821;52.202;0.154;2023-05-11T06:48:11;101555.63;;;11.92;100.00
70407;BME280;57821;52.202;0.154;2023-05-11T06:50:38;101558.22;;;11.94;100.00
70407;BME280;57821;52.202;0.154;2023-05-11T06:53:04;101553.00;;;11.94;100.00
70407;BME280;57821;52.202;0.154;2023-05-11T06:55:31;101561.72;;;12.02;100.00
70407;BME280;57821;52.202;0.154;2023-05-11T06:57:58;101569.53;;;12.04;100.00
70407;BME280;57821;52.202;0.154;2023-05-11T07:00:24;101557.38;;;12.03;100.00
70407;BME280;57821;52.202;0.154;2023-05-11T07:02:51;101566.06;;;12.09;100.00
70407;BME280;57821;52.202;0.154;2023-05-11T07:05:18;101563.50;;;12.11;100.00
70407;BME280;57821;52.202;0.154;2023-05-11T07:07:44;101565.22;;;12.19;100.00
70407;BME280;57821;52.202;0.154;2023-05-11T07:10:11;101558.31;;;12.21;100.00
70407;BME280;57821;52.202;0.154;2023-05-11T07:12:37;101573.94;;;12.33;100.00
70407;BME280;57821;52.202;0.154;2023-05-11T07:15:04;101563.53;;;12.33;100.00
70407;BME280;57821;52.202;0.154;2023-05-11T07:17:31;101555.75;;;12.43;100.00
70407;BME280;57821;52.202;0.154;2023-05-11T07:19:57;101573.97;;;12.55;100.00
70407;BME280;57821;52.202;0.154;2023-05-11T07:22:24;101567.03;;;12.63;100.00
70407;BME280;57821;52.202;0.154;2023-05-11T07:24:50;101555.75;;;12.65;100.00
70407;BME280;57821;52.202;0.154;2023-05-11T07:27:17;101554.03;;;12.76;100.00
70407;BME280;57821;52.202;0.154;2023-05-11T07:29:43;101566.19;;;12.87;100.00
70407;BME280;57821;52.202;0.154;2023-05-11T07:32:10;101562.72;;;12.92;100.00
70407;BME280;57821;52.202;0.154;2023-05-11T07:34:36;101573.13;;;13.04;100.00
70407;BME280;57821;52.202;0.154;2023-05-11T07:37:03;101572.25;;;13.08;100.00
70407;BME280;57821;52.202;0.154;2023-05-11T07:39:29;101577.47;;;13.21;100.00
70407;BME280;57821;52.202;0.154;2023-05-11T07:41:56;101565.28;;;13.29;100.00
70407;BME280;57821;52.202;0.154;2023-05-11T07:44:23;101564.38;;;13.42;100.00
70407;BME280;57821;52.202;0.154;2023-05-11T07:46:50;101573.03;;;13.54;100.00
70407;BME280;57821;52.202;0.154;2023-05-11T07:49:16;101571.28;;;13.61;100.00
70407;BME280;57821;52.202;0.154;2023-05-11T07:51:56;101580.81;;;13.65;100.00
70407;BME280;57821;52.202;0.154;2023-05-11T07:54:23;101583.38;;;13.77;100.00
70407;BME280;57821;52.202;0.154;2023-05-11T07:56:49;101573.84;;;13.79;100.00
70407;BME280;57821;52.202;0.154;2023-05-11T07:59:16;101575.53;;;13.89;100.00
70407;BME280;57821;52.202;0.154;2023-05-11T08:01:42;101582.41;;;14.01;100.00
70407;BME280;57821;52.202;0.154;2023-05-11T08:04:09;101586.72;;;14.13;100.00
70407;BME280;57821;52.202;0.154;2023-05-11T08:06:35;101583.16;;;14.21;100.00
70407;BME280;57821;52.202;0.154;2023-05-11T08:09:02;101577.06;;;14.30;100.00
70407;BME280;57821;52.202;0.154;2023-05-11T08:11:28;101587.44;;;14.41;100.00
70407;BME280;57821;52.202;0.154;2023-05-11T08:13:55;101592.56;;;14.57;100.00
70407;BME280;57821;52.202;0.154;2023-05-11T08:16:22;101592.47;;;14.72;100.00
70407;BME280;57821;52.202;0.154;2023-05-11T08:18:48;101580.19;;;14.80;100.00
70407;BME280;57821;52.202;0.154;2023-05-11T08:21:15;101590.53;;;14.93;100.00
70407;BME280;57821;52.202;0.154;2023-05-11T08:23:41;101593.06;;;15.05;100.00
70407;BME280;57821;52.202;0.154;2023-05-11T08:26:10;101594.69;;;15.19;100.00
70407;BME280;57821;52.202;0.154;2023-05-11T08:28:37;101602.34;;;15.33;100.00
70407;BME280;57821;52.202;0.154;2023-05-11T08:31:03;101591.78;;;15.45;100.00
70407;BME280;57821;52.202;0.154;2023-05-11T08:33:30;101602.09;;;15.62;100.00
70407;BME280;57821;52.202;0.154;2023-05-11T08:36:05;101592.50;;;15.61;100.00
70407;BME280;57821;52.202;0.154;2023-05-11T08:38:31;101595.84;;;15.77;100.00
70407;BME280;57821;52.202;0.154;2023-05-11T08:41:00;101601.72;;;15.94;100.00
70407;BME280;57821;52.202;0.154;2023-05-11T08:43:28;101606.75;;;16.11;100.00
70407;BME280;57821;52.202;0.154;2023-05-11T08:45:59;101595.41;;;16.12;100.00
70407;BME280;57821;52.202;0.154;2023-05-11T08:48:28;101604.03;;;16.17;100.00
70407;BME280;57821;52.202;0.154;2023-05-11T08:50:56;101597.88;;;16.22;100.00
70407;BME280;57821;52.202;0.154;2023-05-11T08:53:23;101595.16;;;16.30;100.00
70407;BME280;57821;52.202;0.154;2023-05-11T08:55:50;101603.56;;;16.52;100.00
70407;BME280;57821;52.202;0.154;2023-05-11T08:58:17;101598.97;;;16.69;100.00
70407;BME280;57821;52.202;0.154;2023-05-11T09:00:45;101605.50;;;16.96;100.00
70407;BME280;57821;52.202;0.154;2023-05-11T09:03:11;101600.09;;;17.06;100.00
70407;BME280;57821;52.202;0.154;2023-05-11T09:05:38;101615.66;;;17.15;100.00
70407;BME280;57821;52.202;0.154;2023-05-11T09:08:06;101613.03;;;17.17;100.00
70407;BME280;57821;52.202;0.154;2023-05-11T09:10:32;101605.22;;;17.12;100.00
70407;BME280;57821;52.202;0.154;2023-05-11T09:12:59;101609.78;;;17.01;100.00
70407;BME280;57821;52.202;0.154;2023-05-11T09:15:26;101610.81;;;16.91;100.00
70407;BME280;57821;52.202;0.154;2023-05-11T09:17:52;101609.16;;;16.87;100.00
70407;BME280;57821;52.202;0.154;2023-05-11T09:20:27;101623.06;;;16.89;100.00
70407;BME280;57821;52.202;0.154;2023-05-11T09:22:55;101620.44;;;16.89;100.00
70407;BME280;57821;52.202;0.154;2023-05-11T09:25:22;101607.34;;;16.89;100.00
70407;BME280;57821;52.202;0.154;2023-05-11T09:27:49;101613.16;;;17.08;100.00
70407;BME280;57821;52.202;0.154;2023-05-11T09:30:18;101613.50;;;17.37;100.00
70407;BME280;57821;52.202;0.154;2023-05-11T09:35:28;101618.09;;;17.75;100.00
70407;BME280;57821;52.202;0.154;2023-05-11T09:38:09;101612.09;;;17.67;100.00
70407;BME280;57821;52.202;0.154;2023-05-11T09:40:41;101612.09;;;17.67;100.00
70407;BME280;57821;52.202;0.154;2023-05-11T09:43:25;101616.28;;;17.77;100.00
70407;BME280;57821;52.202;0.154;2023-05-11T09:45:54;101610.88;;;17.86;100.00
70407;BME280;57821;52.202;0.154;2023-05-11T09:48:27;101611.03;;;18.19;100.00
70407;BME280;57821;52.202;0.154;2023-05-11T09:51:00;101616.50;;;18.48;100.00
70407;BME280;57821;52.202;0.154;2023-05-11T09:56:00;101613.50;;;19.02;100.00
70407;BME280;57821;52.202;0.154;2023-05-11T09:58:44;101614.47;;;19.33;100.00
70407;BME280;57821;52.202;0.154;2023-05-11T10:01:10;101615.88;;;19.46;97.22
70407;BME280;57821;52.202;0.154;2023-05-11T10:03:51;101620.22;;;19.49;100.00
70407;BME280;57821;52.202;0.154;2023-05-11T10:06:18;101621.25;;;19.40;95.70
70407;BME280;57821;52.202;0.154;2023-05-11T10:08:46;101620.78;;;19.26;93.31
70407;BME280;57821;52.202;0.154;2023-05-11T10:11:13;101615.84;;;19.14;94.43
70407;BME280;57821;52.202;0.154;2023-05-11T10:13:42;101616.13;;;19.02;96.81
70407;BME280;57821;52.202;0.154;2023-05-11T10:16:10;101618.09;;;18.94;97.12
70407;BME280;57821;52.202;0.154;2023-05-11T10:18:38;101614.75;;;18.87;95.24
70407;BME280;57821;52.202;0.154;2023-05-11T10:21:04;101616.59;;;18.83;94.66
70407;BME280;57821;52.202;0.154;2023-05-11T10:23:32;101612.22;;;18.82;95.39
70407;BME280;57821;52.202;0.154;2023-05-11T10:25:59;101610.91;;;19.00;95.86
70407;BME280;57821;52.202;0.154;2023-05-11T10:28:26;101607.47;;;19.32;94.47
70407;BME280;57821;52.202;0.154;2023-05-11T10:30:55;101610.97;;;19.65;95.85
70407;BME280;57821;52.202;0.154;2023-05-11T10:33:22;101617.34;;;19.89;91.12
70407;BME280;57821;52.202;0.154;2023-05-11T10:35:49;101608.75;;;20.12;92.39
70407;BME280;57821;52.202;0.154;2023-05-11T10:38:19;101605.91;;;20.48;94.22
70407;BME280;57821;52.202;0.154;2023-05-11T10:40:46;101618.03;;;21.08;92.72
70407;BME280;57821;52.202;0.154;2023-05-11T10:43:47;101619.78;;;21.84;100.00
70407;BME280;57821;52.202;0.154;2023-05-11T10:46:44;101612.25;;;22.43;100.00
70407;BME280;57821;52.202;0.154;2023-05-11T10:49:32;101619.19;;;22.67;100.00
70407;BME280;57821;52.202;0.154;2023-05-11T10:52:20;101611.72;;;23.00;100.00
70407;BME280;57821;52.202;0.154;2023-05-11T10:55:07;101607.94;;;23.26;81.43
70407;BME280;57821;52.202;0.154;2023-05-11T11:00:23;101607.84;;;23.29;77.90
70407;BME280;57821;52.202;0.154;2023-05-11T11:03:10;101597.22;;;22.88;96.65
70407;BME280;57821;52.202;0.154;2023-05-11T11:05:38;101604.75;;;22.54;78.99
70407;BME280;57821;52.202;0.154;2023-05-11T11:08:05;101601.47;;;22.26;78.74
70407;BME280;57821;52.202;0.154;2023-05-11T11:10:35;101597.16;;;22.01;84.54
70407;BME280;57821;52.202;0.154;2023-05-11T11:13:07;101594.34;;;21.81;89.87
70407;BME280;57821;52.202;0.154;2023-05-11T11:18:29;101586.06;;;21.67;93.32
70407;BME280;57821;52.202;0.154;2023-05-11T11:20:57;101594.34;;;21.81;81.43
70407;BME280;57821;52.202;0.154;2023-05-11T11:26:12;101586.63;;;21.52;80.53
70407;BME280;57821;52.202;0.154;2023-05-11T11:31:29;101581.19;;;21.05;94.66
70407;BME280;57821;52.202;0.154;2023-05-11T11:33:58;101581.94;;;20.84;80.94
70407;BME280;57821;52.202;0.154;2023-05-11T11:42:12;101569.19;;;20.15;87.77
70407;BME280;57821;52.202;0.154;2023-05-11T11:44:41;101564.50;;;20.24;78.30
70407;BME280;57821;52.202;0.154;2023-05-11T11:49:40;101556.06;;;20.69;74.81
70407;BME280;57821;52.202;0.154;2023-05-11T11:55:02;101559.03;;;21.37;79.50
70407;BME280;57821;52.202;0.154;2023-05-11T11:59:55;101564.53;;;22.02;69.15
70407;BME280;57821;52.202;0.154;2023-05-11T12:02:22;101577.41;;;22.33;64.56
70407;BME280;57821;52.202;0.154;2023-05-11T12:05:10;101563.03;;;22.40;71.45
70407;BME280;57821;52.202;0.154;2023-05-11T12:07:43;101565.88;;;22.36;65.46
70407;BME280;57821;52.202;0.154;2023-05-11T12:10:14;101559.44;;;22.20;62.29
70407;BME280;57821;52.202;0.154;2023-05-11T12:12:44;101565.47;;;22.01;75.58
70407;BME280;57821;52.202;0.154;2023-05-11T12:15:25;101556.84;;;21.96;70.92
70407;BME280;57821;52.202;0.154;2023-05-11T12:17:52;101555.69;;;22.03;59.54
70407;BME280;57821;52.202;0.154;2023-05-11T12:20:19;101549.97;;;22.14;58.14
70407;BME280;57821;52.202;0.154;2023-05-11T12:22:47;101560.06;;;22.26;55.02
70407;BME280;57821;52.202;0.154;2023-05-11T12:25:14;101562.94;;;22.20;55.10
70407;BME280;57821;52.202;0.154;2023-05-11T12:27:55;101559.81;;;22.10;65.04
70407;BME280;57821;52.202;0.154;2023-05-11T12:30:24;101561.88;;;22.02;55.57
70407;BME280;57821;52.202;0.154;2023-05-11T12:32:52;101559.63;;;21.92;55.23
70407;BME280;57821;52.202;0.154;2023-05-11T12:35:23;101559.00;;;21.85;54.93
70407;BME280;57821;52.202;0.154;2023-05-11T12:37:50;101552.34;;;21.75;54.17
70407;BME280;57821;52.202;0.154;2023-05-11T12:40:16;101557.63;;;21.75;54.13
70407;BME280;57821;52.202;0.154;2023-05-11T12:42:53;101553.47;;;21.68;58.40
70407;BME280;57821;52.202;0.154;2023-05-11T12:45:21;101552.06;;;21.59;54.41
70407;BME280;57821;52.202;0.154;2023-05-11T12:47:49;101555.09;;;21.49;52.84
70407;BME280;57821;52.202;0.154;2023-05-11T12:50:17;101555.84;;;21.52;51.61
70407;BME280;57821;52.202;0.154;2023-05-11T12:52:44;101551.28;;;21.56;52.38
70407;BME280;57821;52.202;0.154;2023-05-11T12:55:11;101547.09;;;21.50;52.04
70407;BME280;57821;52.202;0.154;2023-05-11T12:57:38;101549.69;;;21.52;51.92
70407;BME280;57821;52.202;0.154;2023-05-11T13:02:33;101543.63;;;21.25;49.69
70407;BME280;57821;52.202;0.154;2023-05-11T13:05:09;101549.00;;;21.22;52.03
70407;BME280;57821;52.202;0.154;2023-05-11T13:07:36;101550.78;;;21.21;48.01
70407;BME280;57821;52.202;0.154;2023-05-11T13:10:02;101549.81;;;21.24;48.15
70407;BME280;57821;52.202;0.154;2023-05-11T13:12:29;101552.06;;;21.35;48.10
70407;BME280;57821;52.202;0.154;2023-05-11T13:15:05;101550.78;;;21.46;47.99
70407;BME280;57821;52.202;0.154;2023-05-11T13:17:36;101545.63;;;21.43;46.79
70407;BME280;57821;52.202;0.154;2023-05-11T13:20:18;101555.31;;;21.43;49.52
70407;BME280;57821;52.202;0.154;2023-05-11T13:22:46;101546.13;;;21.53;46.40
70407;BME280;57821;52.202;0.154;2023-05-11T13:25:15;101547.97;;;21.51;45.60
70407;BME280;57821;52.202;0.154;2023-05-11T13:27:42;101542.47;;;21.32;45.56
70407;BME280;57821;52.202;0.154;2023-05-11T13:30:09;101550.69;;;21.24;45.40
70407;BME280;57821;52.202;0.154;2023-05-11T13:32:37;101545.50;;;21.21;46.41